Time;durP1;ratioP1;P1;durP2;ratioP2;P2;SDS_P1;SDS_P2;PMS_P1;PMS_P2;Temp;Humidity;BMP_temperature;BMP_pressure;BME280_temperature;BME280_humidity;BME280_pressure;Samples;Min_cycle;Max_cycle;Signal;HPM_P1;HPM_P2
2023/04/09 00:00:46;;;;;;;1.07;1.07;;;22.00;50.70;;;;;;5011454;28;20462;-75
2023/04/09 00:03:14;;;;;;;1.50;1.40;;;22.00;50.70;;;;;;5017203;28;20458;-77
2023/04/09 00:05:42;;;;;;;1.50;1.17;;;21.90;50.70;;;;;;5011435;28;20470;-75
2023/04/09 00:08:10;;;;;;;1.60;1.50;;;21.90;50.80;;;;;;5014368;28;20555;-82
2023/04/09 00:10:38;;;;;;;1.73;1.57;;;21.90;50.80;;;;;;5015900;28;20461;-76
2023/04/09 00:13:06;;;;;;;1.20;1.20;;;21.90;50.80;;;;;;5018875;28;20466;-78
2023/04/09 00:15:35;;;;;;;1.47;1.37;;;21.90;50.80;;;;;;5028528;28;20459;-74
2023/04/09 00:18:04;;;;;;;1.07;1.07;;;21.90;50.80;;;;;;5028152;28;20474;-74
2023/04/09 00:20:32;;;;;;;1.03;1.03;;;21.90;50.80;;;;;;5027442;28;20481;-74
2023/04/09 00:23:00;;;;;;;1.30;1.30;;;21.90;50.80;;;;;;5030004;28;20446;-74
2023/04/09 00:25:29;;;;;;;1.30;1.30;;;21.80;50.80;;;;;;5027866;28;20577;-74
2023/04/09 00:27:57;;;;;;;1.10;1.10;;;21.80;50.80;;;;;;5024618;28;20807;-74
2023/04/09 00:30:28;;;;;;;1.40;1.30;;;21.80;50.80;;;;;;5027668;28;20494;-73
2023/04/09 00:32:56;;;;;;;1.53;1.43;;;21.80;50.80;;;;;;5024187;28;20509;-78
2023/04/09 00:35:25;;;;;;;1.30;1.20;;;21.80;50.80;;;;;;5008618;28;20556;-76
2023/04/09 00:37:53;;;;;;;1.50;1.40;;;21.80;50.80;;;;;;5026453;28;20510;-74
2023/04/09 00:40:22;;;;;;;1.17;1.17;;;21.80;50.80;;;;;;5022977;28;20483;-75
2023/04/09 00:42:50;;;;;;;1.27;1.27;;;21.80;50.80;;;;;;5028909;28;20462;-73
2023/04/09 00:45:18;;;;;;;1.00;1.00;;;21.80;50.80;;;;;;5027952;28;20505;-74
2023/04/09 00:47:46;;;;;;;1.10;1.07;;;21.80;50.80;;;;;;5029584;28;20455;-79
2023/04/09 00:50:16;;;;;;;1.83;1.50;;;21.80;50.80;;;;;;5012606;28;20450;-75
2023/04/09 00:52:46;;;;;;;1.40;1.30;;;21.80;50.90;;;;;;5012404;28;20609;-75
2023/04/09 00:55:14;;;;;;;1.27;1.20;;;21.70;50.90;;;;;;5030276;28;20451;-77
2023/04/09 00:57:42;;;;;;;1.00;0.97;;;21.80;50.90;;;;;;5030097;28;20541;-74
2023/04/09 01:00:12;;;;;;;1.33;1.13;;;21.80;50.90;;;;;;5029568;28;20581;-74
2023/04/09 01:02:41;;;;;;;1.17;1.17;;;21.70;50.90;;;;;;5011432;28;20551;-74
2023/04/09 01:05:10;;;;;;;1.17;1.03;;;21.70;50.90;;;;;;5011581;28;20977;-76
2023/04/09 01:07:54;;;;;;;1.30;1.20;;;21.70;50.90;;;;;;5029446;28;20994;-74
2023/04/09 01:10:30;;;;;;;1.50;1.40;;;21.70;50.90;;;;;;5012810;28;20458;-76
2023/04/09 01:13:07;;;;;;;1.00;1.00;;;21.70;50.90;;;;;;5030209;28;20453;-74
2023/04/09 01:15:40;;;;;;;1.30;1.20;;;21.70;50.90;;;;;;5007481;28;20479;-74
2023/04/09 01:18:13;;;;;;;1.50;1.40;;;21.70;50.90;;;;;;5014697;28;20465;-74
2023/04/09 01:20:46;;;;;;;1.37;1.33;;;21.70;50.90;;;;;;5032411;28;20454;-75
2023/04/09 01:23:19;;;;;;;0.90;0.90;;;21.70;50.90;;;;;;5015800;28;20474;-75
2023/04/09 01:26:02;;;;;;;1.00;0.90;;;21.70;50.90;;;;;;5031290;28;20497;-74
2023/04/09 01:28:43;;;;;;;1.00;1.00;;;21.70;50.90;;;;;;5009899;28;20503;-75
2023/04/09 01:31:13;;;;;;;0.80;0.80;;;21.70;51.00;;;;;;5015653;28;20456;-74
2023/04/09 01:33:42;;;;;;;1.30;1.20;;;21.70;50.90;;;;;;5015780;28;21336;-75
2023/04/09 01:36:11;;;;;;;0.97;0.97;;;21.70;51.00;;;;;;5014088;28;20452;-74
2023/04/09 01:38:42;;;;;;;1.60;1.50;;;21.70;51.00;;;;;;5003418;28;20545;-75
2023/04/09 01:41:15;;;;;;;1.43;1.33;;;21.60;51.00;;;;;;5032782;28;20444;-74
2023/04/09 01:43:45;;;;;;;1.50;1.40;;;21.60;51.00;;;;;;5018702;28;20479;-75
2023/04/09 01:46:16;;;;;;;1.40;1.40;;;21.60;51.00;;;;;;5031654;28;20445;-75
2023/04/09 01:48:45;;;;;;;1.47;1.37;;;21.60;51.00;;;;;;5033511;28;21059;-74
2023/04/09 01:51:14;;;;;;;0.93;0.93;;;21.60;51.00;;;;;;5015633;28;20455;-73
2023/04/09 01:53:42;;;;;;;1.30;1.20;;;21.60;51.00;;;;;;5019194;28;20954;-76
2023/04/09 01:56:10;;;;;;;1.00;1.00;;;21.60;51.00;;;;;;5022950;28;20458;-73
2023/04/09 01:58:39;;;;;;;1.50;1.40;;;21.60;51.00;;;;;;5015472;28;20963;-73
2023/04/09 02:01:13;;;;;;;1.20;1.20;;;21.60;51.00;;;;;;5008254;28;20454;-73
2023/04/09 02:03:46;;;;;;;1.57;1.47;;;21.60;51.00;;;;;;5032138;28;20466;-74
2023/04/09 02:06:20;;;;;;;1.10;1.10;;;21.60;51.00;;;;;;5015387;28;20835;-74
2023/04/09 02:08:51;;;;;;;1.20;1.13;;;21.60;51.10;;;;;;5029859;28;20541;-73
2023/04/09 02:11:21;;;;;;;1.33;0.90;;;21.60;51.00;;;;;;5033061;28;20534;-74
2023/04/09 02:13:52;;;;;;;0.73;0.73;;;21.60;51.10;;;;;;5032199;28;20541;-77
2023/04/09 02:16:23;;;;;;;0.90;0.90;;;21.60;51.00;;;;;;5033332;28;20474;-73
2023/04/09 02:18:54;;;;;;;1.10;1.10;;;21.50;51.10;;;;;;5009749;28;20466;-79
2023/04/09 02:21:22;;;;;;;1.00;1.00;;;21.50;51.10;;;;;;5015711;28;20476;-74
2023/04/09 02:23:51;;;;;;;1.30;1.20;;;21.50;51.10;;;;;;5032910;28;20462;-74
2023/04/09 02:26:19;;;;;;;1.10;1.10;;;21.50;51.10;;;;;;5032942;28;20464;-73
2023/04/09 02:28:47;;;;;;;1.10;1.10;;;21.50;51.10;;;;;;5029938;28;20525;-75
2023/04/09 02:31:15;;;;;;;1.17;1.10;;;21.50;51.10;;;;;;5024624;28;20447;-74
2023/04/09 02:33:45;;;;;;;1.10;1.10;;;21.50;51.10;;;;;;5030005;28;21313;-74
2023/04/09 02:36:13;;;;;;;1.00;1.00;;;21.50;51.10;;;;;;5031825;28;20461;-75
2023/04/09 02:38:42;;;;;;;1.20;1.10;;;21.50;51.10;;;;;;5030741;28;20557;-74
2023/04/09 02:41:10;;;;;;;1.47;1.37;;;21.50;51.10;;;;;;5032174;28;21145;-73
2023/04/09 02:43:39;;;;;;;1.47;1.37;;;21.50;51.10;;;;;;5031704;28;20456;-74
2023/04/09 02:46:07;;;;;;;1.00;1.00;;;21.50;51.10;;;;;;5032412;28;20451;-74
2023/04/09 02:48:36;;;;;;;1.00;1.00;;;21.50;51.10;;;;;;5030657;28;20458;-74
2023/04/09 02:51:07;;;;;;;1.03;1.03;;;21.50;51.10;;;;;;5025559;28;20456;-76
2023/04/09 02:53:36;;;;;;;1.30;1.20;;;21.50;51.10;;;;;;5028521;28;20516;-80
2023/04/09 02:56:05;;;;;;;1.00;1.00;;;21.50;51.10;;;;;;5032543;28;20499;-75
2023/04/09 02:58:33;;;;;;;1.40;1.30;;;21.40;51.10;;;;;;5026006;28;20787;-75
2023/04/09 03:01:01;;;;;;;1.20;1.20;;;21.50;51.10;;;;;;5031602;28;20580;-76
2023/04/09 03:03:30;;;;;;;1.10;1.10;;;21.40;51.10;;;;;;5009317;28;20556;-74
2023/04/09 03:05:59;;;;;;;1.07;1.07;;;21.40;51.10;;;;;;5032444;28;20449;-74
2023/04/09 03:08:29;;;;;;;1.00;1.00;;;21.50;51.10;;;;;;5031682;28;20458;-75
2023/04/09 03:10:57;;;;;;;1.20;1.20;;;21.40;51.10;;;;;;5025533;28;20570;-73
2023/04/09 03:13:27;;;;;;;1.17;1.07;;;21.40;51.10;;;;;;5030991;28;20455;-76
2023/04/09 03:15:55;;;;;;;1.20;1.20;;;21.40;51.10;;;;;;5031615;28;20445;-74
2023/04/09 03:18:23;;;;;;;1.50;1.40;;;21.40;51.10;;;;;;5030850;28;20452;-74
2023/04/09 03:20:52;;;;;;;1.30;1.20;;;21.40;51.10;;;;;;5031978;28;20483;-74
2023/04/09 03:23:20;;;;;;;1.33;1.23;;;21.40;51.10;;;;;;5026071;28;20481;-74
2023/04/09 03:25:49;;;;;;;1.17;1.17;;;21.40;51.10;;;;;;5013985;28;20448;-75
2023/04/09 03:28:19;;;;;;;1.17;1.10;;;21.40;51.10;;;;;;5013084;28;20494;-74
2023/04/09 03:30:51;;;;;;;1.30;1.20;;;21.40;51.10;;;;;;5013827;28;20473;-79
2023/04/09 03:33:20;;;;;;;1.10;1.10;;;21.40;51.10;;;;;;5013333;28;20465;-74
2023/04/09 03:35:54;;;;;;;1.53;1.47;;;21.40;51.10;;;;;;5013905;28;20855;-77
2023/04/09 03:38:32;;;;;;;1.50;1.40;;;21.40;51.10;;;;;;5013534;28;20874;-74
2023/04/09 03:41:06;;;;;;;1.43;1.33;;;21.40;51.10;;;;;;5012900;28;21026;-75
2023/04/09 03:43:34;;;;;;;1.20;1.20;;;21.40;51.10;;;;;;5030779;28;21093;-75
2023/04/09 03:46:12;;;;;;;1.30;1.20;;;21.40;51.10;;;;;;5013668;28;20469;-74
2023/04/09 03:48:41;;;;;;;1.37;1.27;;;21.40;51.20;;;;;;5013908;28;20830;-80
2023/04/09 03:51:12;;;;;;;0.80;0.80;;;21.40;51.20;;;;;;5031332;28;20464;-73
2023/04/09 03:53:42;;;;;;;0.90;0.90;;;21.40;51.20;;;;;;5014992;28;20547;-75
2023/04/09 03:56:11;;;;;;;0.90;0.90;;;21.40;51.20;;;;;;5031822;28;20545;-74
2023/04/09 03:58:39;;;;;;;0.97;0.97;;;21.40;51.20;;;;;;5017307;28;20552;-74
2023/04/09 04:01:11;;;;;;;0.83;0.83;;;21.50;51.20;;;;;;5013389;28;20485;-74
2023/04/09 04:03:52;;;;;;;1.00;1.00;;;21.50;51.20;;;;;;5011459;28;21052;-76
2023/04/09 04:06:26;;;;;;;1.10;1.10;;;21.60;51.10;;;;;;5018678;28;20473;-74
2023/04/09 04:09:03;;;;;;;1.43;1.33;;;21.70;51.00;;;;;;5025669;28;20457;-78
2023/04/09 04:11:43;;;;;;;1.00;1.00;;;21.70;51.00;;;;;;5030114;28;20471;-75
2023/04/09 04:14:12;;;;;;;1.10;1.10;;;21.80;50.90;;;;;;5020302;28;20465;-73
2023/04/09 04:16:43;;;;;;;0.90;0.90;;;21.90;50.90;;;;;;5018463;28;20474;-74
2023/04/09 04:19:15;;;;;;;1.30;1.20;;;21.90;50.80;;;;;;5010142;28;20488;-74
2023/04/09 04:21:47;;;;;;;1.20;1.17;;;22.00;50.80;;;;;;5014759;28;20483;-74
2023/04/09 04:24:16;;;;;;;0.80;0.80;;;22.10;50.70;;;;;;5008122;28;20465;-75
2023/04/09 04:26:45;;;;;;;1.17;1.17;;;22.10;50.70;;;;;;5009694;28;20798;-75
2023/04/09 04:29:17;;;;;;;1.27;1.17;;;22.20;50.60;;;;;;5006196;28;20487;-77
2023/04/09 04:31:56;;;;;;;1.07;1.00;;;22.30;50.60;;;;;;5008938;28;20466;-74
2023/04/09 04:34:29;;;;;;;1.07;1.07;;;22.30;50.50;;;;;;5004001;28;20471;-74
2023/04/09 04:37:03;;;;;;;1.00;1.00;;;22.40;50.40;;;;;;5009852;28;20462;-74
2023/04/09 04:39:33;;;;;;;1.23;1.23;;;22.40;50.40;;;;;;5010997;28;20549;-77
2023/04/09 04:42:11;;;;;;;1.70;1.60;;;22.40;50.40;;;;;;5022093;28;20480;-74
2023/04/09 04:44:39;;;;;;;1.77;1.67;;;22.40;50.50;;;;;;5013915;28;20489;-74
2023/04/09 04:47:27;;;;;;;1.87;1.77;;;22.40;50.50;;;;;;5029054;28;20475;-74
2023/04/09 04:49:55;;;;;;;1.80;1.70;;;22.40;50.60;;;;;;5015944;28;20452;-74
2023/04/09 04:52:24;;;;;;;2.10;2.00;;;22.40;50.70;;;;;;5015489;28;20526;-77
2023/04/09 04:54:54;;;;;;;2.07;1.93;;;22.30;50.70;;;;;;5024362;28;20463;-75
2023/04/09 04:57:25;;;;;;;2.63;2.43;;;22.30;50.80;;;;;;5018000;28;20445;-76
2023/04/09 04:59:54;;;;;;;1.83;1.73;;;22.30;50.90;;;;;;5014682;28;20486;-77
2023/04/09 05:02:22;;;;;;;2.20;2.10;;;22.20;51.00;;;;;;5006826;28;20573;-77
2023/04/09 05:05:10;;;;;;;2.40;2.30;;;22.20;51.10;;;;;;5021856;28;20865;-75
2023/04/09 05:07:45;;;;;;;2.90;2.70;;;22.20;51.10;;;;;;5016286;28;20492;-80
2023/04/09 05:10:14;;;;;;;2.40;2.30;;;22.10;51.20;;;;;;5007518;28;20468;-78
2023/04/09 05:12:45;;;;;;;2.50;2.30;;;22.10;51.30;;;;;;5004710;28;20482;-74
2023/04/09 05:15:20;;;;;;;2.67;2.57;;;22.10;51.30;;;;;;5014467;28;20462;-78
2023/04/09 05:17:48;;;;;;;2.50;2.37;;;22.10;51.30;;;;;;5021068;28;20462;-81
2023/04/09 05:20:18;;;;;;;2.50;2.30;;;22.00;51.40;;;;;;5013159;28;20532;-78
2023/04/09 05:23:00;;;;;;;2.53;2.33;;;22.00;51.40;;;;;;5015817;28;20457;-77
2023/04/09 05:25:33;;;;;;;2.67;2.47;;;22.00;51.40;;;;;;5012414;28;20513;-75
2023/04/09 05:28:04;;;;;;;2.57;2.47;;;22.00;51.40;;;;;;5009822;28;20493;-75
2023/04/09 05:30:34;;;;;;;2.90;2.70;;;21.90;51.50;;;;;;5013608;28;20525;-76
2023/04/09 05:33:04;;;;;;;2.20;2.10;;;21.90;51.50;;;;;;5013424;28;20467;-78
2023/04/09 05:35:33;;;;;;;2.67;2.57;;;21.90;51.50;;;;;;5015450;28;20481;-75
2023/04/09 05:38:01;;;;;;;2.87;2.67;;;21.90;51.60;;;;;;5016313;28;20458;-76
2023/04/09 05:40:30;;;;;;;2.77;2.57;;;21.90;51.60;;;;;;5016102;28;21212;-75
2023/04/09 05:42:58;;;;;;;2.30;2.20;;;21.90;51.60;;;;;;5015902;28;20847;-75
2023/04/09 05:45:40;;;;;;;2.37;2.27;;;21.90;51.60;;;;;;5015172;28;20473;-75
2023/04/09 05:48:08;;;;;;;2.60;2.40;;;21.90;51.60;;;;;;5015502;28;20485;-75
2023/04/09 05:50:37;;;;;;;3.07;2.87;;;22.00;51.50;;;;;;5017714;28;20455;-75
2023/04/09 05:53:23;;;;;;;2.60;2.40;;;22.00;51.50;;;;;;5024683;28;20545;-75
2023/04/09 05:55:52;;;;;;;2.20;2.10;;;22.00;51.50;;;;;;5015869;28;20468;-74
2023/04/09 05:58:24;;;;;;;2.90;2.70;;;22.00;51.50;;;;;;5013167;28;20883;-80
2023/04/09 06:00:54;;;;;;;2.97;2.70;;;22.00;51.50;;;;;;5010643;28;20462;-75
2023/04/09 06:03:22;;;;;;;2.40;2.20;;;22.00;51.40;;;;;;5027406;28;20464;-78
2023/04/09 06:05:50;;;;;;;2.77;2.57;;;22.10;51.40;;;;;;5008523;28;20851;-75
2023/04/09 06:08:18;;;;;;;2.70;2.50;;;22.10;51.50;;;;;;5014606;28;21007;-79
2023/04/09 06:10:47;;;;;;;2.43;2.30;;;22.10;51.60;;;;;;5014077;28;20946;-74
2023/04/09 06:13:15;;;;;;;2.47;2.27;;;22.10;51.60;;;;;;5032375;28;20457;-74
2023/04/09 06:15:43;;;;;;;2.40;2.27;;;22.10;51.60;;;;;;5031719;28;20465;-74
2023/04/09 06:18:12;;;;;;;2.37;2.27;;;22.10;51.70;;;;;;5032878;28;20979;-74
2023/04/09 06:20:41;;;;;;;2.50;2.40;;;22.20;51.70;;;;;;5028384;28;20448;-77
2023/04/09 06:23:10;;;;;;;2.10;1.97;;;22.20;51.70;;;;;;5027970;28;20490;-75
2023/04/09 06:25:38;;;;;;;2.33;2.23;;;22.20;51.70;;;;;;5032948;28;20459;-75
2023/04/09 06:28:06;;;;;;;3.03;2.83;;;22.20;51.70;;;;;;5029553;28;20550;-77
2023/04/09 06:30:35;;;;;;;3.10;2.90;;;22.20;51.80;;;;;;5031681;28;20462;-75
2023/04/09 06:33:05;;;;;;;2.57;2.37;;;22.20;51.80;;;;;;5035529;28;21245;-74
2023/04/09 06:35:35;;;;;;;3.50;2.77;;;22.20;51.80;;;;;;5029193;28;20463;-74
2023/04/09 06:38:03;;;;;;;2.63;2.43;;;22.10;51.80;;;;;;5015339;28;20486;-74
2023/04/09 06:40:31;;;;;;;3.53;2.40;;;22.10;51.90;;;;;;5030022;28;20471;-74
2023/04/09 06:43:00;;;;;;;2.87;2.67;;;22.10;51.90;;;;;;5031482;28;20481;-76
2023/04/09 06:45:37;;;;;;;2.60;2.50;;;22.10;52.00;;;;;;5014845;28;20472;-74
2023/04/09 06:48:07;;;;;;;2.17;2.07;;;22.10;52.00;;;;;;5031397;28;20469;-74
2023/04/09 06:50:37;;;;;;;3.70;2.20;;;22.10;52.00;;;;;;5025606;28;20933;-75
2023/04/09 06:53:06;;;;;;;2.77;2.63;;;22.10;52.00;;;;;;5024063;28;20481;-75
2023/04/09 06:55:35;;;;;;;2.63;2.53;;;22.00;52.00;;;;;;5032508;28;20950;-75
2023/04/09 06:58:03;;;;;;;2.13;2.03;;;22.00;52.00;;;;;;5032275;28;20818;-76
2023/04/09 07:00:31;;;;;;;2.57;2.40;;;22.00;52.10;;;;;;5025148;28;20462;-74
2023/04/09 07:02:59;;;;;;;2.53;2.33;;;22.00;52.00;;;;;;5028472;28;20490;-77
2023/04/09 07:05:29;;;;;;;2.50;2.30;;;22.00;52.10;;;;;;5027014;28;20453;-74
2023/04/09 07:07:58;;;;;;;2.60;2.43;;;22.10;52.10;;;;;;5028418;28;20542;-74
2023/04/09 07:10:27;;;;;;;2.20;2.10;;;22.00;52.10;;;;;;5020388;28;20447;-74
2023/04/09 07:12:55;;;;;;;2.90;2.70;;;22.00;52.00;;;;;;5022637;28;20972;-77
2023/04/09 07:15:23;;;;;;;2.20;2.10;;;22.00;52.10;;;;;;5025345;28;20537;-75
2023/04/09 07:17:51;;;;;;;2.80;2.63;;;22.00;52.10;;;;;;5029251;28;20470;-75
2023/04/09 07:20:19;;;;;;;2.57;2.20;;;22.10;52.20;;;;;;5008343;28;20893;-79
2023/04/09 07:22:47;;;;;;;2.50;2.40;;;22.10;52.20;;;;;;5026726;28;20479;-75
2023/04/09 07:25:17;;;;;;;2.50;2.33;;;22.10;52.30;;;;;;5020259;28;20886;-75
2023/04/09 07:27:45;;;;;;;2.70;2.50;;;22.10;52.40;;;;;;5028840;28;20495;-76
2023/04/09 07:30:13;;;;;;;3.00;2.70;;;22.10;52.40;;;;;;5024047;28;20460;-78
2023/04/09 07:32:41;;;;;;;2.73;2.53;;;22.20;52.40;;;;;;5022291;28;20467;-78
2023/04/09 07:35:10;;;;;;;3.33;2.70;;;22.20;52.40;;;;;;5027146;28;20989;-75
2023/04/09 07:37:39;;;;;;;2.63;2.43;;;22.20;52.40;;;;;;5009398;28;21199;-77
2023/04/09 07:40:08;;;;;;;2.77;2.57;;;22.20;52.40;;;;;;5021638;28;20462;-74
2023/04/09 07:42:38;;;;;;;2.53;2.33;;;22.20;52.30;;;;;;5031541;28;20481;-76
2023/04/09 07:45:08;;;;;;;2.90;2.67;;;22.20;52.30;;;;;;5022184;28;20490;-76
2023/04/09 07:47:36;;;;;;;3.40;2.70;;;22.20;52.40;;;;;;5021062;28;20520;-80
2023/04/09 07:50:04;;;;;;;3.53;2.80;;;22.20;52.40;;;;;;5021040;28;20495;-79
2023/04/09 07:52:33;;;;;;;2.80;2.63;;;22.20;52.40;;;;;;5028611;28;20561;-76
2023/04/09 07:55:01;;;;;;;4.13;2.80;;;22.20;52.50;;;;;;5025958;28;20481;-82
2023/04/09 07:57:31;;;;;;;3.03;2.60;;;22.20;52.50;;;;;;5028222;28;20451;-76
2023/04/09 08:00:02;;;;;;;3.97;3.17;;;22.20;52.60;;;;;;5026665;28;20455;-82
2023/04/09 08:02:39;;;;;;;2.50;2.40;;;22.20;52.60;;;;;;5025411;28;20485;-76
2023/04/09 08:05:09;;;;;;;2.77;2.57;;;22.10;52.60;;;;;;5029080;28;20477;-77
2023/04/09 08:07:37;;;;;;;3.60;3.10;;;22.10;52.70;;;;;;5030642;28;20466;-76
2023/04/09 08:10:06;;;;;;;3.00;2.80;;;22.10;52.70;;;;;;5030165;28;20451;-84
2023/04/09 08:12:35;;;;;;;7.20;3.13;;;22.10;52.60;;;;;;5022656;28;20551;-76
2023/04/09 08:15:05;;;;;;;6.50;4.00;;;22.10;52.70;;;;;;5018756;28;20454;-78
2023/04/09 08:17:35;;;;;;;3.00;2.80;;;22.10;52.60;;;;;;5024106;28;20812;-76
2023/04/09 08:20:04;;;;;;;5.00;3.80;;;22.10;52.60;;;;;;5024252;28;20454;-76
2023/04/09 08:22:33;;;;;;;3.80;3.40;;;22.10;52.60;;;;;;5026817;28;20478;-78
2023/04/09 08:25:01;;;;;;;3.60;2.97;;;22.20;52.60;;;;;;5026298;28;20543;-79
2023/04/09 08:27:30;;;;;;;3.40;3.10;;;22.20;52.60;;;;;;5018965;28;20457;-77
2023/04/09 08:29:58;;;;;;;3.90;3.07;;;22.20;52.60;;;;;;5025985;28;20546;-75
2023/04/09 08:32:28;;;;;;;7.33;2.83;;;22.20;52.60;;;;;;5027267;28;20459;-77
2023/04/09 08:34:56;;;;;;;3.80;3.50;;;22.20;52.60;;;;;;5025619;28;20461;-76
2023/04/09 08:37:24;;;;;;;4.07;3.70;;;22.30;52.60;;;;;;5022458;28;20482;-78
2023/04/09 08:39:52;;;;;;;3.03;2.83;;;22.30;52.50;;;;;;5029241;28;20459;-77
2023/04/09 08:42:22;;;;;;;5.10;3.00;;;22.30;52.50;;;;;;5024720;28;20560;-77
2023/04/09 08:44:51;;;;;;;3.77;3.40;;;22.40;52.50;;;;;;5020756;28;20529;-77
2023/04/09 08:47:20;;;;;;;3.40;3.20;;;22.40;52.50;;;;;;5017454;28;21536;-76
2023/04/09 08:49:50;;;;;;;3.27;2.97;;;22.50;52.50;;;;;;5022739;28;20508;-77
2023/04/09 08:52:20;;;;;;;3.30;3.00;;;22.50;52.40;;;;;;5025075;28;20505;-75
2023/04/09 08:54:51;;;;;;;3.93;3.60;;;22.50;52.30;;;;;;5029434;28;20984;-75
2023/04/09 08:57:19;;;;;;;3.30;2.80;;;22.50;52.30;;;;;;5029336;28;20931;-78
2023/04/09 08:59:47;;;;;;;5.63;3.30;;;22.50;52.30;;;;;;5032713;28;20460;-75
2023/04/09 09:02:15;;;;;;;4.13;3.73;;;22.50;52.30;;;;;;5024858;28;20459;-78
2023/04/09 09:04:46;;;;;;;3.80;3.27;;;22.50;52.30;;;;;;5028530;28;20503;-75
2023/04/09 09:07:16;;;;;;;3.60;2.93;;;22.50;52.30;;;;;;5016593;28;20955;-79
2023/04/09 09:09:52;;;;;;;3.70;3.40;;;22.50;52.30;;;;;;5009077;28;21729;-82
2023/04/09 09:12:34;;;;;;;3.40;3.10;;;22.50;52.30;;;;;;5010181;28;20562;-79
2023/04/09 09:15:03;;;;;;;3.30;3.00;;;22.50;52.30;;;;;;5013160;28;20440;-78
2023/04/09 09:17:32;;;;;;;3.90;3.60;;;22.50;52.30;;;;;;5018042;28;20514;-82
2023/04/09 09:20:19;;;;;;;4.00;3.50;;;22.50;52.30;;;;;;5017493;28;20460;-82
2023/04/09 09:22:54;;;;;;;3.33;2.97;;;22.50;52.30;;;;;;5019756;28;20456;-77
2023/04/09 09:25:24;;;;;;;3.70;3.40;;;22.50;52.30;;;;;;5017193;28;20459;-76
2023/04/09 09:27:54;;;;;;;3.50;3.20;;;22.50;52.40;;;;;;5024040;28;20455;-81
2023/04/09 09:30:23;;;;;;;4.07;3.77;;;22.50;52.40;;;;;;5018830;28;20462;-82
2023/04/09 09:32:53;;;;;;;3.70;3.13;;;22.50;52.40;;;;;;5017156;28;20967;-77
2023/04/09 09:35:22;;;;;;;3.23;3.00;;;22.50;52.40;;;;;;5024454;28;20480;-77
2023/04/09 09:38:03;;;;;;;4.17;3.53;;;22.50;52.40;;;;;;5023571;28;20463;-76
2023/04/09 09:40:32;;;;;;;3.30;3.03;;;22.50;52.40;;;;;;5008703;28;21463;-78
2023/04/09 09:43:00;;;;;;;3.43;2.90;;;22.50;52.40;;;;;;5021258;28;20455;-76
2023/04/09 09:45:30;;;;;;;2.93;2.67;;;22.50;52.40;;;;;;5025310;28;20455;-75
2023/04/09 09:47:58;;;;;;;3.50;3.30;;;22.50;52.40;;;;;;5030805;28;20861;-75
2023/04/09 09:50:30;;;;;;;3.20;3.00;;;22.50;52.40;;;;;;5026654;28;20963;-76
2023/04/09 09:53:04;;;;;;;3.47;2.87;;;22.50;52.30;;;;;;5026364;28;21945;-79
2023/04/09 09:55:33;;;;;;;3.40;3.10;;;22.50;52.40;;;;;;5029880;28;21044;-77
2023/04/09 09:58:10;;;;;;;3.60;3.30;;;22.50;52.30;;;;;;5025446;28;20539;-75
2023/04/09 10:00:40;;;;;;;2.77;2.57;;;22.60;52.30;;;;;;5026879;28;20471;-80
2023/04/09 10:03:14;;;;;;;3.40;3.20;;;22.60;52.30;;;;;;5027331;28;20979;-74
2023/04/09 10:05:44;;;;;;;3.67;3.10;;;22.60;52.30;;;;;;5026480;28;20491;-77
2023/04/09 10:08:14;;;;;;;3.63;3.33;;;22.60;52.30;;;;;;5029456;28;20539;-73
2023/04/09 10:10:43;;;;;;;3.20;3.00;;;22.60;52.30;;;;;;5025327;28;20482;-73
2023/04/09 10:13:16;;;;;;;3.60;3.37;;;22.60;52.20;;;;;;5028364;28;20467;-79
2023/04/09 10:15:45;;;;;;;2.93;2.67;;;22.70;52.20;;;;;;5022494;28;20822;-75
2023/04/09 10:18:14;;;;;;;3.77;3.47;;;22.70;52.20;;;;;;5022029;28;20479;-78
2023/04/09 10:20:50;;;;;;;4.53;3.60;;;22.70;52.10;;;;;;5021943;28;20872;-76
2023/04/09 10:23:31;;;;;;;3.50;3.20;;;22.70;52.10;;;;;;5019002;28;20959;-74
2023/04/09 10:25:59;;;;;;;5.03;2.90;;;22.80;52.10;;;;;;5020403;28;21032;-74
2023/04/09 10:28:27;;;;;;;3.40;3.10;;;22.80;52.10;;;;;;5025148;28;20569;-77
2023/04/09 10:30:56;;;;;;;3.90;3.60;;;22.80;52.00;;;;;;5027548;28;20462;-75
2023/04/09 10:33:26;;;;;;;3.63;3.23;;;22.80;52.00;;;;;;5030582;28;20509;-77
2023/04/09 10:35:59;;;;;;;4.23;3.03;;;22.80;52.00;;;;;;5028387;28;20452;-75
2023/04/09 10:38:39;;;;;;;5.03;3.43;;;22.90;51.90;;;;;;5027881;28;20494;-74
2023/04/09 10:41:13;;;;;;;3.20;3.00;;;22.90;51.90;;;;;;5022850;28;20463;-74
2023/04/09 10:43:42;;;;;;;3.10;2.90;;;22.80;52.10;;;;;;5015229;28;20484;-77
2023/04/09 10:46:26;;;;;;;4.40;4.00;;;22.80;52.30;;;;;;5027301;28;20510;-75
2023/04/09 10:49:12;;;;;;;5.47;3.07;;;22.80;52.50;;;;;;5019235;28;20464;-75
2023/04/09 10:51:40;;;;;;;3.60;3.30;;;22.90;52.50;;;;;;5023461;28;20526;-80
2023/04/09 10:54:39;;;;;;;17.47;11.80;;;22.90;52.50;;;;;;5027560;28;20457;-78
2023/04/09 10:57:12;;;;;;;57.03;32.23;;;22.90;52.60;;;;;;5019778;28;20458;-77
2023/04/09 10:59:42;;;;;;;23.73;13.67;;;23.00;52.90;;;;;;5015949;28;21533;-76
2023/04/09 11:02:25;;;;;;;21.13;10.37;;;23.00;52.80;;;;;;5024575;28;20469;-78
2023/04/09 11:05:04;;;;;;;17.13;9.90;;;23.00;52.70;;;;;;5023141;28;20528;-80
2023/04/09 11:07:35;;;;;;;12.37;9.53;;;23.10;52.60;;;;;;5030169;28;20449;-78
2023/04/09 11:10:06;;;;;;;17.13;10.23;;;23.10;52.50;;;;;;5020469;28;20460;-80
2023/04/09 11:12:34;;;;;;;11.53;8.73;;;23.20;52.20;;;;;;5012667;28;20825;-79
2023/04/09 11:15:02;;;;;;;9.20;7.00;;;23.20;52.10;;;;;;5024620;28;21072;-77
2023/04/09 11:17:35;;;;;;;10.73;6.93;;;23.30;51.90;;;;;;5013427;28;20871;-76
2023/04/09 11:20:04;;;;;;;9.60;6.23;;;23.40;51.80;;;;;;5024683;28;20830;-77
2023/04/09 11:22:33;;;;;;;9.00;7.07;;;23.50;51.50;;;;;;5011291;28;20452;-78
2023/04/09 11:25:01;;;;;;;11.13;6.20;;;23.70;51.50;;;;;;5030700;28;20472;-76
2023/04/09 11:27:31;;;;;;;8.37;5.60;;;23.70;51.30;;;;;;5028974;28;20456;-76
2023/04/09 11:29:59;;;;;;;10.20;5.80;;;23.80;51.50;;;;;;5020572;28;21000;-76
2023/04/09 11:32:30;;;;;;;10.73;6.20;;;23.80;51.70;;;;;;5027856;28;20464;-82
2023/04/09 11:34:58;;;;;;;8.73;5.67;;;23.90;52.30;;;;;;5029443;28;21031;-77
2023/04/09 11:37:26;;;;;;;9.53;6.13;;;24.00;52.60;;;;;;5026680;28;20468;-75
2023/04/09 11:39:56;;;;;;;10.77;6.10;;;24.20;53.50;;;;;;5021703;28;20470;-77
2023/04/09 11:42:25;;;;;;;8.73;5.50;;;24.10;52.40;;;;;;5025002;28;20463;-76
2023/04/09 11:44:55;;;;;;;5.20;4.70;;;24.00;50.80;;;;;;5027097;28;20482;-77
2023/04/09 11:47:24;;;;;;;8.20;6.43;;;23.80;49.70;;;;;;5025251;28;20465;-75
2023/04/09 11:49:53;;;;;;;7.27;4.97;;;23.60;50.10;;;;;;5024547;28;20462;-79
2023/04/09 11:52:21;;;;;;;4.87;4.30;;;23.50;50.50;;;;;;5022988;28;20492;-82
2023/04/09 11:54:50;;;;;;;6.00;4.53;;;23.40;50.60;;;;;;5019519;28;20468;-81
2023/04/09 11:57:18;;;;;;;5.53;5.03;;;23.40;51.40;;;;;;5026923;28;20470;-79
2023/04/09 11:59:46;;;;;;;6.70;5.03;;;23.30;51.70;;;;;;5023806;28;20473;-76
2023/04/09 12:02:18;;;;;;;4.27;3.87;;;23.30;51.80;;;;;;5009738;28;20468;-74
2023/04/09 12:04:50;;;;;;;5.63;4.30;;;23.30;52.00;;;;;;5023157;28;20557;-74
2023/04/09 12:07:18;;;;;;;5.87;4.50;;;23.30;52.10;;;;;;5023018;28;20449;-80
2023/04/09 12:09:47;;;;;;;5.10;4.00;;;23.30;52.30;;;;;;5020451;28;20481;-80
2023/04/09 12:12:19;;;;;;;4.93;4.40;;;23.30;52.40;;;;;;5025444;28;20551;-75
2023/04/09 12:14:47;;;;;;;6.03;4.70;;;23.30;52.30;;;;;;5032695;28;20564;-73
2023/04/09 12:17:20;;;;;;;4.37;3.90;;;23.40;52.60;;;;;;5030527;28;20456;-75
2023/04/09 12:19:49;;;;;;;4.43;4.03;;;23.50;52.60;;;;;;5026749;28;20460;-78
2023/04/09 12:22:17;;;;;;;4.27;3.90;;;23.50;52.50;;;;;;5020038;28;20538;-75
2023/04/09 12:24:45;;;;;;;5.07;3.80;;;23.50;52.50;;;;;;5011700;28;21054;-75
2023/04/09 12:27:13;;;;;;;4.80;4.10;;;23.40;52.30;;;;;;5025225;28;21146;-75
2023/04/09 12:29:41;;;;;;;4.50;4.10;;;23.40;52.30;;;;;;5007998;28;20534;-78
2023/04/09 12:32:10;;;;;;;4.57;4.27;;;23.40;52.70;;;;;;5008386;28;21145;-75
2023/04/09 12:34:39;;;;;;;8.20;3.70;;;23.50;52.30;;;;;;5008714;28;20911;-74
2023/04/09 12:37:08;;;;;;;4.53;4.17;;;23.60;52.00;;;;;;5009220;28;20529;-76
2023/04/09 12:39:36;;;;;;;4.50;4.10;;;23.60;51.80;;;;;;5008950;28;20456;-75
2023/04/09 12:42:04;;;;;;;4.03;3.73;;;23.60;51.80;;;;;;5015618;28;20488;-80
2023/04/09 12:44:32;;;;;;;8.40;4.80;;;23.60;52.00;;;;;;5011959;28;20551;-81
2023/04/09 12:47:01;;;;;;;6.43;4.50;;;23.50;52.10;;;;;;5026223;28;20441;-79
2023/04/09 12:49:30;;;;;;;5.40;4.50;;;23.50;52.30;;;;;;5026610;28;20436;-78
2023/04/09 12:51:59;;;;;;;3.90;3.60;;;23.50;52.10;;;;;;5026180;28;20491;-75
2023/04/09 12:54:27;;;;;;;6.10;4.20;;;23.40;52.10;;;;;;5025088;28;20448;-80
2023/04/09 12:56:55;;;;;;;4.00;3.70;;;23.30;52.10;;;;;;5026745;28;20448;-75
2023/04/09 12:59:24;;;;;;;3.77;3.37;;;23.20;52.10;;;;;;5027612;28;20557;-76
2023/04/09 13:01:52;;;;;;;4.43;4.03;;;23.20;52.20;;;;;;5030665;28;20474;-78